Portada
METAR-TAF:

METAR-TAF

Aeropuertos :

Mécheria, Argelia

latitud: 34-56N, longitud: 000-26W, altitud: 1149 m

Observación

El informe se hizo hace 32 minutos, a las 18:00 UTC
Viento 4 kt del norte-noreste
Temperatura 9°C
Humedad 71%
Presión 1027 hPa
Visibilidad 10 km o más
sin nubes por debajo de 1500 m y sin presencia de cumulonimbus.

METAR: DAAY 271800Z 03004KT CAVOK 09/04 Q1027

Hora: 19:32 (18:32 UTC)

Pronóstico

El informe se hizo hace 1 hora y 32 minutos, a las 17:00 UTC
Pronóstico válido del 27 a las 18 UTC al 28 a las 03 UTC
Viento 10 kt del este-noreste
Visibilidad 10 km o más
sin nubes por debajo de 1500 m y sin presencia de cumulonimbus.
Evolucionando progresivamente
del 27 a las 20 UTC al 27 a las 22 UTC
Viento 2 kt con dirección variable

TAF: DAAY 271700Z 2718/2803 06010KT CAVOK BECMG 2720/2722 VRB02KT

Observaciones y pronósticos meteorológicos de más de 4000 aeropuertos (mensajes METAR y TAF).

Los puntos amarillos y rojos representan las estaciones disponibles.

Ponga el ratón en el punto deseado para ver el nombre de la estación.

Haga clic para ver las observaciones y los pronósticos meteorológicos.

Para cambiar el mapa : haga clic en los botones verdes con una cruz de color negro para hacer un zoom, en el botón verde con un guión para alejar o en las flechas verdes para mapas adyacentes.


METAR-TAF: